createdAt,value
2023-06-13T00:01:37.674Z,17.60
2023-06-13T00:04:04.948Z,17.60
2023-06-13T00:06:35.865Z,17.60
2023-06-13T00:09:03.696Z,17.50
2023-06-13T00:11:30.782Z,17.40
2023-06-13T00:13:57.850Z,17.30
2023-06-13T00:16:26.672Z,17.30
2023-06-13T00:18:55.008Z,17.20
2023-06-13T00:21:22.145Z,17.30
2023-06-13T00:23:49.390Z,17.30
2023-06-13T00:26:16.493Z,17.30
2023-06-13T00:28:48.128Z,17.40
2023-06-13T00:31:15.277Z,17.30
2023-06-13T00:33:44.909Z,17.30
2023-06-13T00:36:17.380Z,17.30
2023-06-13T00:38:44.491Z,17.20
2023-06-13T00:41:11.454Z,17.20
2023-06-13T00:43:38.420Z,17.20
2023-06-13T00:46:05.598Z,17.20
2023-06-13T00:48:33.361Z,17.10
2023-06-13T00:51:02.696Z,17.00
2023-06-13T00:53:32.383Z,16.90
2023-06-13T00:56:03.621Z,16.70
2023-06-13T00:58:30.735Z,16.70
2023-06-13T01:00:58.888Z,16.60
2023-06-13T01:03:26.025Z,16.60
2023-06-13T01:05:53.041Z,16.70
2023-06-13T01:08:26.131Z,16.70
2023-06-13T01:11:14.267Z,16.60
2023-06-13T01:13:48.339Z,16.60
2023-06-13T01:16:25.383Z,16.60
2023-06-13T01:18:53.348Z,16.60
2023-06-13T01:21:22.056Z,16.50
2023-06-13T01:23:53.678Z,16.50
2023-06-13T01:38:43.546Z,16.10
2023-06-13T01:41:13.159Z,16.00
2023-06-13T01:43:40.185Z,16.00
2023-06-13T01:46:25.940Z,15.90
2023-06-13T01:48:53.451Z,15.80
2023-06-13T01:51:20.482Z,15.90
2023-06-13T01:53:55.207Z,15.90
2023-06-13T01:56:25.097Z,15.90
2023-06-13T01:59:04.224Z,15.80
2023-06-13T02:01:36.399Z,15.80
2023-06-13T02:04:04.377Z,15.80
2023-06-13T02:06:31.876Z,15.80
2023-06-13T02:08:58.971Z,15.70
2023-06-13T02:11:27.051Z,15.70
2023-06-13T02:13:54.246Z,15.70
2023-06-13T02:16:26.699Z,15.70
2023-06-13T02:18:54.405Z,15.80
2023-06-13T02:21:22.546Z,15.70
2023-06-13T02:23:50.980Z,15.70
2023-06-13T02:26:20.856Z,15.70
2023-06-13T02:28:49.165Z,15.70
2023-06-13T02:31:17.145Z,15.80
2023-06-13T02:33:45.208Z,15.70
2023-06-13T02:36:13.031Z,15.70
2023-06-13T02:38:42.344Z,15.70
2023-06-13T02:41:09.423Z,15.70
2023-06-13T02:43:36.755Z,15.60
2023-06-13T02:46:04.700Z,15.60
2023-06-13T02:48:31.719Z,15.60
2023-06-13T02:50:58.794Z,15.60
2023-06-13T02:53:26.526Z,15.60
2023-06-13T02:55:54.179Z,15.60
2023-06-13T02:58:21.696Z,15.60
2023-06-13T03:01:07.330Z,15.70
2023-06-13T03:03:35.857Z,15.70
2023-06-13T03:06:09.933Z,15.70
2023-06-13T03:08:40.351Z,15.60
2023-06-13T03:11:10.548Z,15.70
2023-06-13T03:13:39.551Z,15.70
2023-06-13T03:16:07.846Z,15.80
2023-06-13T03:18:37.004Z,15.80
2023-06-13T03:21:05.992Z,15.70
2023-06-13T03:23:33.235Z,15.80
2023-06-13T03:26:03.078Z,15.80
2023-06-13T03:28:33.074Z,15.80
2023-06-13T03:31:01.980Z,15.90
2023-06-13T03:33:33.792Z,16.00
2023-06-13T03:36:02.026Z,16.00
2023-06-13T03:38:29.845Z,16.00
2023-06-13T03:40:57.512Z,16.00
2023-06-13T03:43:27.872Z,16.00
2023-06-13T03:45:55.313Z,16.10
2023-06-13T03:48:23.080Z,16.10
2023-06-13T03:50:50.203Z,16.20
2023-06-13T03:53:17.199Z,16.20
2023-06-13T03:55:46.424Z,16.30
2023-06-13T03:58:14.087Z,16.30
2023-06-13T04:00:41.117Z,16.40
2023-06-13T04:03:09.640Z,16.40
2023-06-13T04:05:37.139Z,16.40
2023-06-13T04:08:06.510Z,16.50
2023-06-13T04:10:33.549Z,16.50
2023-06-13T04:13:00.708Z,16.50
2023-06-13T04:15:27.904Z,16.60
2023-06-13T04:17:55.324Z,16.60
2023-06-13T04:20:25.550Z,16.70
2023-06-13T04:22:53.484Z,16.80
2023-06-13T04:25:21.118Z,16.80
2023-06-13T04:27:49.874Z,16.80
2023-06-13T04:30:17.410Z,16.90
2023-06-13T04:35:52.142Z,17.00
2023-06-13T04:38:24.316Z,17.00
2023-06-13T04:40:51.541Z,17.00
2023-06-13T04:43:18.603Z,17.10
2023-06-13T04:45:45.760Z,17.00
2023-06-13T04:48:12.847Z,17.00
2023-06-13T04:50:41.411Z,17.10
2023-06-13T04:53:08.901Z,17.20
2023-06-13T04:55:36.777Z,17.30
2023-06-13T04:58:03.749Z,17.40
2023-06-13T05:00:30.884Z,17.50
2023-06-13T05:02:58.361Z,17.50
2023-06-13T05:05:25.603Z,17.60
2023-06-13T05:07:57.169Z,17.70
2023-06-13T05:10:25.359Z,17.70
2023-06-13T05:12:52.865Z,17.80
2023-06-13T05:15:21.223Z,17.80
2023-06-13T05:17:49.624Z,17.90
2023-06-13T05:20:17.040Z,18.00
2023-06-13T05:22:44.101Z,18.00
2023-06-13T05:25:13.233Z,18.10
2023-06-13T05:27:40.543Z,18.20
2023-06-13T05:30:08.103Z,18.30
2023-06-13T05:32:35.232Z,18.30
2023-06-13T05:35:02.360Z,18.30
2023-06-13T05:37:29.898Z,18.30
2023-06-13T05:39:57.292Z,18.40
2023-06-13T05:42:24.433Z,18.50
2023-06-13T05:44:51.538Z,18.60
2023-06-13T05:47:18.513Z,18.70
2023-06-13T05:49:46.170Z,18.80
2023-06-13T05:52:13.178Z,18.90
2023-06-13T05:54:40.205Z,19.00
2023-06-13T05:57:07.366Z,19.10
2023-06-13T05:59:34.365Z,19.20
2023-06-13T06:02:02.232Z,19.20
2023-06-13T06:04:29.356Z,19.30
2023-06-13T06:06:56.446Z,19.30
2023-06-13T06:09:24.917Z,19.40
2023-06-13T06:11:52.832Z,19.50
2023-06-13T06:14:19.818Z,19.60
2023-06-13T06:16:46.938Z,19.60
2023-06-13T06:19:13.966Z,19.70
2023-06-13T06:21:41.171Z,19.70
2023-06-13T06:24:08.428Z,19.70
2023-06-13T06:26:35.710Z,19.80
2023-06-13T06:29:02.686Z,19.90
2023-06-13T06:31:29.755Z,20.00
2023-06-13T06:33:56.874Z,20.10
2023-06-13T06:36:24.468Z,20.30
2023-06-13T06:38:54.768Z,20.40
2023-06-13T06:41:21.966Z,20.50
2023-06-13T06:43:49.073Z,20.70
2023-06-13T06:46:16.451Z,20.70
2023-06-13T06:48:43.604Z,20.90
2023-06-13T06:51:10.779Z,21.20
2023-06-13T06:53:40.905Z,21.30
2023-06-13T06:56:08.038Z,21.40
2023-06-13T06:58:35.260Z,21.50
2023-06-13T07:01:02.440Z,21.80
2023-06-13T07:03:29.560Z,22.10
2023-06-13T07:05:56.745Z,22.40
2023-06-13T07:08:23.870Z,22.80
2023-06-13T07:10:52.707Z,23.20
2023-06-13T07:23:13.437Z,25.10
2023-06-13T07:25:43.354Z,24.90
2023-06-13T07:45:27.876Z,27.40
2023-06-13T07:47:55.258Z,28.10
2023-06-13T07:50:23.332Z,28.50
2023-06-13T07:52:50.409Z,28.80
2023-06-13T07:55:17.623Z,28.50
2023-06-13T07:57:59.013Z,27.60
2023-06-13T08:00:26.680Z,26.90
2023-06-13T08:02:53.852Z,26.60
2023-06-13T08:05:21.510Z,26.60
2023-06-13T08:07:48.876Z,26.90
2023-06-13T08:10:16.042Z,26.70
2023-06-13T08:12:43.581Z,26.20
2023-06-13T08:15:11.620Z,25.80
2023-06-13T08:17:39.130Z,25.70
2023-06-13T08:20:07.183Z,25.60
2023-06-13T08:22:34.302Z,25.50
2023-06-13T08:25:01.561Z,25.30
2023-06-13T08:27:28.700Z,25.30
2023-06-13T08:29:57.758Z,25.50
2023-06-13T08:32:25.994Z,25.60
2023-06-13T08:34:53.253Z,25.40
2023-06-13T08:37:20.274Z,25.30
2023-06-13T08:39:47.277Z,25.40
2023-06-13T08:42:14.497Z,25.40
2023-06-13T08:44:42.171Z,25.60
2023-06-13T08:47:31.582Z,25.60
2023-06-13T08:50:01.768Z,25.50
2023-06-13T08:52:37.856Z,25.80
2023-06-13T08:55:14.564Z,26.00
2023-06-13T08:57:55.645Z,26.30
2023-06-13T09:00:25.771Z,26.70
2023-06-13T09:02:53.769Z,26.70
2023-06-13T09:05:21.028Z,27.00
2023-06-13T09:07:48.422Z,27.20
2023-06-13T09:10:16.469Z,27.40
2023-06-13T09:12:44.770Z,27.30
2023-06-13T09:15:12.444Z,27.70
2023-06-13T09:17:40.161Z,28.00
2023-06-13T09:20:08.906Z,28.60
2023-06-13T09:22:36.576Z,29.60
2023-06-13T09:25:05.898Z,30.90
2023-06-13T09:27:33.010Z,32.00
2023-06-13T09:30:03.327Z,32.00
2023-06-13T09:32:30.443Z,31.70
2023-06-13T09:34:58.410Z,31.60
2023-06-13T09:37:26.967Z,31.30
2023-06-13T09:40:09.810Z,31.20
2023-06-13T09:42:42.740Z,31.70
2023-06-13T09:45:10.903Z,32.50
2023-06-13T09:50:05.895Z,34.40
2023-06-13T09:52:32.926Z,35.30
2023-06-13T09:55:00.004Z,36.10
2023-06-13T09:57:41.459Z,36.60
2023-06-13T10:00:15.305Z,36.30
2023-06-13T10:02:44.324Z,36.10
2023-06-13T10:05:13.244Z,35.90
2023-06-13T10:07:40.943Z,35.50
2023-06-13T10:10:09.155Z,35.50
2023-06-13T10:12:39.590Z,35.60
2023-06-13T10:15:07.416Z,35.20
2023-06-13T10:17:36.603Z,35.10
2023-06-13T10:20:08.441Z,35.40
2023-06-13T10:22:36.508Z,35.60
2023-06-13T10:25:04.447Z,35.20
2023-06-13T10:27:31.734Z,35.20
2023-06-13T10:30:12.831Z,35.70
2023-06-13T10:32:48.098Z,35.00
2023-06-13T10:35:18.083Z,34.60
2023-06-13T10:37:54.946Z,34.50
2023-06-13T10:40:40.927Z,34.20
2023-06-13T10:43:11.147Z,34.10
2023-06-13T10:45:38.369Z,34.00
2023-06-13T10:48:06.039Z,33.20
2023-06-13T10:50:45.375Z,32.60
2023-06-13T10:53:44.864Z,31.80
2023-06-13T10:56:12.234Z,32.10
2023-06-13T10:58:39.317Z,32.10
2023-06-13T11:01:25.207Z,32.10
2023-06-13T11:03:52.425Z,32.60
2023-06-13T11:06:19.378Z,33.10
2023-06-13T11:08:46.348Z,33.10
2023-06-13T11:11:13.304Z,32.90
2023-06-13T11:13:40.995Z,32.90
2023-06-13T11:16:21.578Z,33.00
2023-06-13T11:18:49.257Z,32.80
2023-06-13T11:21:16.385Z,32.60
2023-06-13T11:23:56.136Z,32.80
2023-06-13T11:26:23.333Z,32.40
2023-06-13T11:28:51.625Z,32.10
2023-06-13T11:31:21.034Z,31.80
2023-06-13T11:33:49.242Z,32.00
2023-06-13T11:36:18.338Z,32.10
2023-06-13T11:39:05.467Z,31.90
2023-06-13T11:41:33.010Z,31.70
2023-06-13T11:44:00.045Z,31.60
2023-06-13T11:46:27.096Z,31.50
2023-06-13T11:48:55.556Z,31.80
2023-06-13T11:51:23.013Z,32.10
2023-06-13T11:53:53.973Z,32.40
2023-06-13T11:56:27.001Z,31.60
2023-06-13T11:58:54.949Z,31.50
2023-06-13T12:01:26.143Z,31.40
2023-06-13T12:03:57.314Z,31.50
2023-06-13T12:06:26.152Z,31.60
2023-06-13T12:08:53.233Z,31.20
2023-06-13T12:11:26.353Z,31.10
2023-06-13T12:13:58.345Z,31.60
2023-06-13T12:16:27.001Z,31.40
2023-06-13T12:18:55.122Z,31.10
2023-06-13T12:21:30.375Z,30.80
2023-06-13T12:31:31.481Z,28.50
2023-06-13T12:34:08.460Z,28.00
2023-06-13T12:36:45.831Z,27.80
2023-06-13T12:39:15.615Z,27.40
2023-06-13T12:41:47.516Z,27.10
2023-06-13T12:44:15.029Z,27.00
2023-06-13T12:46:42.153Z,26.70
2023-06-13T12:49:12.992Z,26.50
2023-06-13T12:51:45.887Z,26.60
2023-06-13T12:54:17.209Z,26.40
2023-06-13T12:59:11.919Z,26.00
2023-06-13T13:01:39.013Z,25.70
2023-06-13T13:04:06.178Z,25.70
2023-06-13T13:06:33.376Z,25.70
2023-06-13T13:09:00.333Z,25.70
2023-06-13T13:11:27.462Z,25.70
2023-06-13T13:13:54.667Z,25.70
2023-06-13T13:16:22.979Z,25.60
2023-06-13T13:18:49.992Z,25.40
2023-06-13T13:21:17.071Z,25.40
2023-06-13T13:23:44.045Z,25.40
2023-06-13T13:26:12.324Z,25.30
2023-06-13T13:28:39.396Z,25.50
2023-06-13T13:31:06.374Z,25.40
2023-06-13T13:33:33.768Z,25.30
2023-06-13T13:36:00.923Z,25.30
2023-06-13T13:38:27.928Z,25.30
2023-06-13T13:40:55.309Z,25.40
2023-06-13T13:43:22.364Z,25.30
2023-06-13T13:45:52.211Z,25.10
2023-06-13T13:48:19.479Z,24.90
2023-06-13T13:50:47.822Z,24.80
2023-06-13T13:53:16.128Z,24.70
2023-06-13T13:55:43.192Z,24.70
2023-06-13T13:58:10.633Z,24.80
2023-06-13T14:00:37.981Z,24.70
2023-06-13T14:03:05.659Z,24.70
2023-06-13T14:05:32.705Z,24.60
2023-06-13T14:08:00.314Z,24.50
2023-06-13T14:10:27.250Z,24.40
2023-06-13T14:12:54.272Z,24.40
2023-06-13T14:15:21.574Z,24.40
2023-06-13T14:17:48.625Z,24.50
2023-06-13T14:20:17.645Z,24.40
2023-06-13T14:37:39.752Z,23.70
2023-06-13T14:40:07.248Z,23.70
2023-06-13T14:42:34.188Z,23.60
2023-06-13T14:45:01.256Z,23.50
2023-06-13T14:47:28.651Z,23.50
2023-06-13T14:49:55.683Z,23.40
2023-06-13T14:52:22.891Z,23.40
2023-06-13T14:54:49.950Z,23.40
2023-06-13T14:57:16.875Z,23.30
2023-06-13T14:59:44.443Z,23.30
2023-06-13T15:02:11.538Z,23.30
2023-06-13T15:04:38.560Z,23.30
2023-06-13T15:07:05.638Z,23.40
2023-06-13T15:09:33.516Z,23.40
2023-06-13T15:12:00.703Z,23.40
2023-06-13T15:14:27.840Z,23.40
2023-06-13T15:16:54.841Z,23.30
2023-06-13T15:19:22.146Z,23.30
2023-06-13T15:21:49.095Z,23.30
2023-06-13T15:24:16.209Z,23.30
2023-06-13T15:26:43.405Z,23.20
2023-06-13T15:29:10.630Z,23.20
2023-06-13T15:31:37.752Z,23.10
2023-06-13T15:34:05.003Z,23.00
2023-06-13T15:36:32.191Z,23.00
2023-06-13T15:38:59.387Z,23.00
2023-06-13T15:41:26.493Z,23.10
2023-06-13T15:43:53.863Z,23.10
2023-06-13T15:46:22.826Z,23.10
2023-06-13T15:48:49.876Z,23.10
2023-06-13T15:51:16.912Z,23.00
2023-06-13T15:53:43.952Z,22.90
2023-06-13T15:56:11.736Z,22.80
2023-06-13T15:58:38.933Z,22.60
2023-06-13T16:01:07.415Z,22.60
2023-06-13T16:03:34.700Z,22.50
2023-06-13T16:06:03.963Z,22.50
2023-06-13T16:08:31.496Z,22.60
2023-06-13T16:10:58.621Z,22.60
2023-06-13T16:13:27.392Z,22.60
2023-06-13T16:15:54.356Z,22.50
2023-06-13T16:18:21.943Z,22.50
2023-06-13T16:20:49.330Z,22.50
2023-06-13T16:23:18.386Z,22.50
2023-06-13T16:25:46.420Z,22.50
2023-06-13T16:28:14.041Z,22.40
2023-06-13T16:30:41.515Z,22.40
2023-06-13T16:33:08.720Z,22.40
2023-06-13T16:35:37.496Z,22.40
2023-06-13T16:38:04.505Z,22.40
2023-06-13T16:40:31.675Z,22.30
2023-06-13T16:42:58.745Z,22.20
2023-06-13T16:45:26.287Z,22.20
2023-06-13T16:47:53.643Z,22.20
2023-06-13T16:50:20.773Z,22.20
2023-06-13T16:52:50.522Z,22.20
2023-06-13T16:55:17.910Z,22.30
2023-06-13T16:57:45.123Z,22.30
2023-06-13T17:00:12.550Z,22.20
2023-06-13T17:02:39.651Z,22.10
2023-06-13T17:05:06.820Z,22.10
2023-06-13T17:07:34.017Z,22.00
2023-06-13T17:10:01.555Z,22.00
2023-06-13T17:14:55.961Z,22.00
2023-06-13T17:17:23.129Z,21.90
2023-06-13T17:19:52.703Z,21.90
2023-06-13T17:22:19.819Z,21.80
2023-06-13T17:24:46.747Z,21.80
2023-06-13T17:27:13.712Z,21.80
2023-06-13T17:29:40.846Z,21.70
2023-06-13T17:32:08.134Z,21.70
2023-06-13T17:34:37.060Z,21.60
2023-06-13T17:37:04.223Z,21.70
2023-06-13T17:39:31.181Z,21.70
2023-06-13T17:42:03.318Z,21.60
2023-06-13T17:44:30.566Z,21.50
2023-06-13T17:46:57.631Z,21.50
2023-06-13T17:49:24.732Z,21.50
2023-06-13T17:51:52.162Z,21.40
2023-06-13T17:54:20.821Z,21.30
2023-06-13T17:56:48.295Z,21.20
2023-06-13T17:59:15.498Z,21.10
2023-06-13T18:01:42.602Z,21.20
2023-06-13T18:04:09.893Z,21.20
2023-06-13T18:06:38.024Z,21.10
2023-06-13T18:09:05.671Z,21.00
2023-06-13T18:11:33.343Z,21.00
2023-06-13T18:14:01.795Z,21.10
2023-06-13T18:16:29.026Z,21.00
2023-06-13T18:18:56.339Z,21.00
2023-06-13T18:21:23.429Z,20.90
2023-06-13T18:23:50.449Z,21.00
2023-06-13T18:26:17.661Z,21.00
2023-06-13T18:28:44.632Z,20.90
2023-06-13T18:31:11.680Z,20.80
2023-06-13T18:33:38.742Z,20.80
2023-06-13T18:36:05.763Z,20.70
2023-06-13T18:38:34.530Z,20.60
2023-06-13T18:41:02.106Z,20.50
2023-06-13T18:43:29.567Z,20.50
2023-06-13T18:45:56.813Z,20.50
2023-06-13T18:48:24.030Z,20.50
2023-06-13T18:50:52.566Z,20.50
2023-06-13T18:53:19.602Z,20.40
2023-06-13T18:55:47.069Z,20.30
2023-06-13T18:58:16.052Z,20.30
2023-06-13T19:00:46.371Z,20.30
2023-06-13T19:03:13.799Z,20.20
2023-06-13T19:05:40.935Z,20.20
2023-06-13T19:08:08.727Z,20.20
2023-06-13T19:10:36.733Z,20.20
2023-06-13T19:13:03.900Z,20.20
2023-06-13T19:15:30.964Z,20.20
2023-06-13T19:17:58.005Z,20.20
2023-06-13T19:20:25.273Z,20.20
2023-06-13T19:22:52.526Z,20.20
2023-06-13T19:25:19.941Z,20.20
2023-06-13T19:27:47.050Z,20.20
2023-06-13T19:30:15.557Z,20.10
2023-06-13T19:32:42.939Z,20.10
2023-06-13T19:35:10.220Z,20.00
2023-06-13T19:37:37.492Z,20.00
2023-06-13T19:40:11.320Z,20.00
2023-06-13T19:42:39.865Z,20.00
2023-06-13T19:45:07.247Z,19.90
2023-06-13T19:47:34.363Z,19.90
2023-06-13T19:50:01.371Z,19.80
2023-06-13T19:52:29.198Z,19.90
2023-06-13T19:54:59.658Z,19.90
2023-06-13T19:57:28.475Z,20.00
2023-06-13T19:59:55.558Z,19.90
2023-06-13T20:02:22.794Z,19.90
2023-06-13T20:04:50.455Z,19.80
2023-06-13T20:07:17.665Z,19.80
2023-06-13T20:09:44.625Z,19.70
2023-06-13T20:12:11.860Z,19.70
2023-06-13T20:14:39.040Z,19.70
2023-06-13T20:17:07.284Z,19.70
2023-06-13T20:19:40.395Z,19.70
2023-06-13T20:22:07.698Z,19.70
2023-06-13T20:24:34.704Z,19.70
2023-06-13T20:27:02.192Z,19.70
2023-06-13T20:29:29.324Z,19.70
2023-06-13T20:31:56.298Z,19.70
2023-06-13T20:34:23.376Z,19.70
2023-06-13T20:36:50.384Z,19.70
2023-06-13T20:39:17.782Z,19.70
2023-06-13T20:41:44.921Z,19.70
2023-06-13T20:44:11.907Z,19.60
2023-06-13T20:46:41.112Z,19.70
2023-06-13T20:49:08.840Z,19.60
2023-06-13T20:51:38.256Z,19.60
2023-06-13T20:54:05.958Z,19.60
2023-06-13T20:56:32.972Z,19.60
2023-06-13T20:58:59.922Z,19.60
2023-06-13T21:01:29.689Z,19.60
2023-06-13T21:03:57.055Z,19.50
2023-06-13T21:06:25.821Z,19.50
2023-06-13T21:08:53.336Z,19.50
2023-06-13T21:11:20.318Z,19.50
2023-06-13T21:13:47.574Z,19.50
2023-06-13T21:16:17.695Z,19.40
2023-06-13T21:18:44.728Z,19.40
2023-06-13T21:21:12.081Z,19.40
2023-06-13T21:23:39.114Z,19.40
2023-06-13T21:26:06.216Z,19.40
2023-06-13T21:28:33.177Z,19.30
2023-06-13T21:31:00.281Z,19.30
2023-06-13T21:33:29.468Z,19.30
2023-06-13T21:35:59.526Z,19.30
2023-06-13T21:38:29.709Z,19.30
2023-06-13T21:40:56.811Z,19.30
2023-06-13T21:43:24.328Z,19.30
2023-06-13T21:46:00.769Z,19.20
2023-06-13T21:48:30.833Z,19.20
2023-06-13T21:50:58.289Z,19.30
2023-06-13T21:53:25.389Z,19.20
2023-06-13T21:55:52.806Z,19.20
2023-06-13T21:58:20.040Z,19.20
2023-06-13T22:00:49.924Z,19.20
2023-06-13T22:03:20.042Z,19.10
2023-06-13T22:05:49.254Z,19.10
2023-06-13T22:08:16.276Z,19.10
2023-06-13T22:10:44.623Z,19.00
2023-06-13T22:13:12.114Z,19.00
2023-06-13T22:15:39.156Z,18.90
2023-06-13T22:18:06.208Z,18.90
2023-06-13T22:20:34.685Z,18.90
2023-06-13T22:23:01.754Z,18.90
2023-06-13T22:25:30.231Z,18.80
2023-06-13T22:27:59.040Z,18.80
2023-06-13T22:30:26.231Z,18.80
2023-06-13T22:32:54.442Z,18.70
2023-06-13T22:35:22.072Z,18.70
2023-06-13T22:37:49.315Z,18.70
2023-06-13T22:40:16.758Z,18.80
2023-06-13T22:42:44.078Z,18.80
2023-06-13T22:45:11.137Z,18.80
2023-06-13T22:47:38.329Z,18.70
2023-06-13T22:50:06.079Z,18.80
2023-06-13T22:52:33.290Z,18.80
2023-06-13T22:55:00.492Z,18.80
2023-06-13T22:57:30.346Z,18.80
2023-06-13T22:59:57.722Z,18.80
2023-06-13T23:02:24.869Z,18.80
2023-06-13T23:04:53.892Z,18.80
2023-06-13T23:07:21.167Z,18.80
2023-06-13T23:09:48.166Z,18.80
2023-06-13T23:12:15.155Z,18.80
2023-06-13T23:14:42.373Z,18.80
2023-06-13T23:17:09.396Z,18.80
2023-06-13T23:19:36.465Z,18.70
2023-06-13T23:22:03.482Z,18.70
2023-06-13T23:24:31.013Z,18.70
2023-06-13T23:26:59.113Z,18.70
2023-06-13T23:29:26.220Z,18.70
2023-06-13T23:31:53.975Z,18.70
2023-06-13T23:34:21.656Z,18.70
2023-06-13T23:36:48.695Z,18.60
2023-06-13T23:39:37.077Z,18.60
2023-06-13T23:42:05.278Z,18.60
2023-06-13T23:44:32.227Z,18.60
2023-06-13T23:46:59.247Z,18.60
2023-06-13T23:49:26.499Z,18.60
2023-06-13T23:51:53.599Z,18.60
2023-06-13T23:56:48.342Z,18.50
2023-06-13T23:59:15.522Z,18.50
